sensor_id;sensor_type;location;lat;lon;timestamp;P1;durP1;ratioP1;P2;durP2;ratioP2
84495;SDS011;74855;51.206;17.408;2024-02-23T00:03:58;11.00;;;5.88;;
84495;SDS011;74855;51.206;17.408;2024-02-23T00:08:55;10.63;;;5.97;;
84495;SDS011;74855;51.206;17.408;2024-02-23T00:13:51;10.98;;;6.13;;
84495;SDS011;74855;51.206;17.408;2024-02-23T00:18:47;11.35;;;6.30;;
84495;SDS011;74855;51.206;17.408;2024-02-23T00:23:44;8.65;;;4.60;;
84495;SDS011;74855;51.206;17.408;2024-02-23T00:28:41;8.38;;;4.22;;
84495;SDS011;74855;51.206;17.408;2024-02-23T00:33:37;8.95;;;4.88;;
84495;SDS011;74855;51.206;17.408;2024-02-23T00:38:33;8.68;;;4.35;;
84495;SDS011;74855;51.206;17.408;2024-02-23T00:43:37;6.78;;;3.30;;
84495;SDS011;74855;51.206;17.408;2024-02-23T00:48:35;5.35;;;2.65;;
84495;SDS011;74855;51.206;17.408;2024-02-23T00:53:31;5.70;;;1.98;;
84495;SDS011;74855;51.206;17.408;2024-02-23T00:58:26;5.18;;;2.25;;
84495;SDS011;74855;51.206;17.408;2024-02-23T01:03:22;6.03;;;2.15;;
84495;SDS011;74855;51.206;17.408;2024-02-23T01:08:20;4.72;;;1.92;;
84495;SDS011;74855;51.206;17.408;2024-02-23T01:13:16;5.13;;;2.13;;
84495;SDS011;74855;51.206;17.408;2024-02-23T01:18:12;4.25;;;1.55;;
84495;SDS011;74855;51.206;17.408;2024-02-23T01:23:08;6.43;;;1.80;;
84495;SDS011;74855;51.206;17.408;2024-02-23T01:28:05;5.30;;;2.03;;
84495;SDS011;74855;51.206;17.408;2024-02-23T01:33:01;4.32;;;1.90;;
84495;SDS011;74855;51.206;17.408;2024-02-23T01:37:57;5.38;;;2.10;;
84495;SDS011;74855;51.206;17.408;2024-02-23T01:43:00;4.47;;;1.55;;
84495;SDS011;74855;51.206;17.408;2024-02-23T01:47:58;6.57;;;2.10;;
84495;SDS011;74855;51.206;17.408;2024-02-23T01:52:54;4.40;;;1.73;;
84495;SDS011;74855;51.206;17.408;2024-02-23T01:57:51;5.00;;;2.03;;
84495;SDS011;74855;51.206;17.408;2024-02-23T02:02:47;3.63;;;1.52;;
84495;SDS011;74855;51.206;17.408;2024-02-23T02:07:45;4.93;;;2.00;;
84495;SDS011;74855;51.206;17.408;2024-02-23T02:12:42;4.80;;;2.83;;
84495;SDS011;74855;51.206;17.408;2024-02-23T02:17:38;3.85;;;1.42;;
84495;SDS011;74855;51.206;17.408;2024-02-23T02:22:34;4.40;;;1.88;;
84495;SDS011;74855;51.206;17.408;2024-02-23T02:27:31;6.10;;;2.47;;
84495;SDS011;74855;51.206;17.408;2024-02-23T02:32:27;5.15;;;2.50;;
84495;SDS011;74855;51.206;17.408;2024-02-23T02:37:23;5.85;;;2.95;;
84495;SDS011;74855;51.206;17.408;2024-02-23T02:42:19;5.78;;;2.63;;
84495;SDS011;74855;51.206;17.408;2024-02-23T02:47:17;7.20;;;3.35;;
84495;SDS011;74855;51.206;17.408;2024-02-23T02:52:13;4.95;;;2.40;;
84495;SDS011;74855;51.206;17.408;2024-02-23T02:57:08;5.97;;;3.28;;
84495;SDS011;74855;51.206;17.408;2024-02-23T03:02:04;5.75;;;2.78;;
84495;SDS011;74855;51.206;17.408;2024-02-23T03:07:01;5.38;;;2.50;;
84495;SDS011;74855;51.206;17.408;2024-02-23T03:11:57;5.97;;;2.53;;
84495;SDS011;74855;51.206;17.408;2024-02-23T03:16:53;4.90;;;2.28;;
84495;SDS011;74855;51.206;17.408;2024-02-23T03:21:49;4.85;;;2.70;;
84495;SDS011;74855;51.206;17.408;2024-02-23T03:26:47;4.43;;;1.75;;
84495;SDS011;74855;51.206;17.408;2024-02-23T03:31:45;5.10;;;2.22;;
84495;SDS011;74855;51.206;17.408;2024-02-23T03:36:40;4.50;;;1.88;;
84495;SDS011;74855;51.206;17.408;2024-02-23T03:41:37;4.05;;;1.60;;
84495;SDS011;74855;51.206;17.408;2024-02-23T03:46:34;4.72;;;1.90;;
84495;SDS011;74855;51.206;17.408;2024-02-23T03:51:30;5.30;;;1.83;;
84495;SDS011;74855;51.206;17.408;2024-02-23T03:56:26;4.45;;;1.73;;
84495;SDS011;74855;51.206;17.408;2024-02-23T04:01:22;4.40;;;1.90;;
84495;SDS011;74855;51.206;17.408;2024-02-23T04:06:19;4.93;;;1.80;;
84495;SDS011;74855;51.206;17.408;2024-02-23T04:11:14;4.80;;;2.03;;
84495;SDS011;74855;51.206;17.408;2024-02-23T04:16:10;5.15;;;2.50;;
84495;SDS011;74855;51.206;17.408;2024-02-23T04:21:06;5.03;;;2.28;;
84495;SDS011;74855;51.206;17.408;2024-02-23T04:26:04;5.07;;;2.17;;
84495;SDS011;74855;51.206;17.408;2024-02-23T04:31:00;4.55;;;2.00;;
84495;SDS011;74855;51.206;17.408;2024-02-23T04:35:57;4.85;;;2.10;;
84495;SDS011;74855;51.206;17.408;2024-02-23T04:40:52;5.18;;;2.45;;
84495;SDS011;74855;51.206;17.408;2024-02-23T04:45:50;6.70;;;3.35;;
84495;SDS011;74855;51.206;17.408;2024-02-23T04:50:48;8.00;;;3.53;;
84495;SDS011;74855;51.206;17.408;2024-02-23T04:55:43;5.97;;;2.78;;
84495;SDS011;74855;51.206;17.408;2024-02-23T05:00:39;8.40;;;3.72;;
84495;SDS011;74855;51.206;17.408;2024-02-23T05:05:36;5.85;;;2.35;;
84495;SDS011;74855;51.206;17.408;2024-02-23T05:10:33;5.95;;;2.53;;
84495;SDS011;74855;51.206;17.408;2024-02-23T05:15:29;5.72;;;1.95;;
84495;SDS011;74855;51.206;17.408;2024-02-23T05:20:24;6.47;;;2.90;;
84495;SDS011;74855;51.206;17.408;2024-02-23T05:25:25;5.85;;;2.63;;
84495;SDS011;74855;51.206;17.408;2024-02-23T05:30:20;4.93;;;2.00;;
84495;SDS011;74855;51.206;17.408;2024-02-23T05:35:16;6.93;;;2.72;;
84495;SDS011;74855;51.206;17.408;2024-02-23T05:40:12;5.57;;;2.20;;
84495;SDS011;74855;51.206;17.408;2024-02-23T05:45:09;6.68;;;3.42;;
84495;SDS011;74855;51.206;17.408;2024-02-23T05:50:05;5.70;;;2.70;;
84495;SDS011;74855;51.206;17.408;2024-02-23T05:55:03;7.00;;;3.15;;
84495;SDS011;74855;51.206;17.408;2024-02-23T05:59:59;5.45;;;2.92;;
84495;SDS011;74855;51.206;17.408;2024-02-23T06:04:56;4.97;;;2.28;;
84495;SDS011;74855;51.206;17.408;2024-02-23T06:09:52;5.82;;;2.35;;
84495;SDS011;74855;51.206;17.408;2024-02-23T06:14:48;5.15;;;2.28;;
84495;SDS011;74855;51.206;17.408;2024-02-23T06:19:43;5.82;;;2.88;;
84495;SDS011;74855;51.206;17.408;2024-02-23T06:24:40;6.30;;;2.67;;
84495;SDS011;74855;51.206;17.408;2024-02-23T06:29:38;4.45;;;2.10;;
84495;SDS011;74855;51.206;17.408;2024-02-23T06:34:34;5.45;;;2.67;;
84495;SDS011;74855;51.206;17.408;2024-02-23T06:39:30;4.70;;;2.20;;
84495;SDS011;74855;51.206;17.408;2024-02-23T06:44:27;6.72;;;3.03;;
84495;SDS011;74855;51.206;17.408;2024-02-23T06:49:23;5.78;;;3.00;;
84495;SDS011;74855;51.206;17.408;2024-02-23T06:54:22;6.07;;;2.65;;
84495;SDS011;74855;51.206;17.408;2024-02-23T06:59:17;6.68;;;3.15;;
84495;SDS011;74855;51.206;17.408;2024-02-23T07:04:14;5.93;;;2.63;;
84495;SDS011;74855;51.206;17.408;2024-02-23T07:09:10;5.85;;;2.78;;
84495;SDS011;74855;51.206;17.408;2024-02-23T07:14:06;7.50;;;3.05;;
84495;SDS011;74855;51.206;17.408;2024-02-23T07:19:02;8.20;;;3.65;;
84495;SDS011;74855;51.206;17.408;2024-02-23T07:23:59;7.70;;;3.67;;
84495;SDS011;74855;51.206;17.408;2024-02-23T07:28:55;6.85;;;3.30;;
84495;SDS011;74855;51.206;17.408;2024-02-23T07:33:52;10.48;;;3.92;;
84495;SDS011;74855;51.206;17.408;2024-02-23T07:38:47;8.80;;;3.58;;
84495;SDS011;74855;51.206;17.408;2024-02-23T07:43:45;8.38;;;3.25;;
84495;SDS011;74855;51.206;17.408;2024-02-23T07:48:40;7.30;;;3.15;;
84495;SDS011;74855;51.206;17.408;2024-02-23T07:53:36;6.85;;;3.15;;
84495;SDS011;74855;51.206;17.408;2024-02-23T07:58:32;6.32;;;2.95;;
84495;SDS011;74855;51.206;17.408;2024-02-23T08:03:29;6.95;;;3.45;;
84495;SDS011;74855;51.206;17.408;2024-02-23T08:08:25;6.35;;;3.05;;
84495;SDS011;74855;51.206;17.408;2024-02-23T08:13:20;5.82;;;2.45;;
84495;SDS011;74855;51.206;17.408;2024-02-23T08:18:16;5.78;;;2.35;;
84495;SDS011;74855;51.206;17.408;2024-02-23T08:23:13;5.43;;;2.40;;
84495;SDS011;74855;51.206;17.408;2024-02-23T08:28:10;6.35;;;2.88;;
84495;SDS011;74855;51.206;17.408;2024-02-23T08:33:06;6.07;;;2.78;;
84495;SDS011;74855;51.206;17.408;2024-02-23T08:38:02;5.47;;;2.30;;
84495;SDS011;74855;51.206;17.408;2024-02-23T08:42:59;5.65;;;2.38;;
84495;SDS011;74855;51.206;17.408;2024-02-23T08:47:55;6.57;;;2.60;;
84495;SDS011;74855;51.206;17.408;2024-02-23T08:52:50;6.18;;;2.65;;
84495;SDS011;74855;51.206;17.408;2024-02-23T08:57:46;5.38;;;2.42;;
84495;SDS011;74855;51.206;17.408;2024-02-23T09:02:43;4.82;;;2.25;;
84495;SDS011;74855;51.206;17.408;2024-02-23T09:07:39;6.57;;;2.60;;
84495;SDS011;74855;51.206;17.408;2024-02-23T09:12:35;7.38;;;3.15;;
84495;SDS011;74855;51.206;17.408;2024-02-23T09:17:31;11.13;;;4.63;;
84495;SDS011;74855;51.206;17.408;2024-02-23T09:22:28;24.70;;;13.27;;
84495;SDS011;74855;51.206;17.408;2024-02-23T09:27:23;13.48;;;7.05;;
84495;SDS011;74855;51.206;17.408;2024-02-23T09:32:19;6.22;;;3.58;;
84495;SDS011;74855;51.206;17.408;2024-02-23T09:37:15;7.50;;;2.50;;
84495;SDS011;74855;51.206;17.408;2024-02-23T09:42:12;6.68;;;2.33;;
84495;SDS011;74855;51.206;17.408;2024-02-23T09:47:08;5.78;;;2.10;;
84495;SDS011;74855;51.206;17.408;2024-02-23T09:52:05;6.65;;;2.00;;
84495;SDS011;74855;51.206;17.408;2024-02-23T09:57:02;4.47;;;1.70;;
84495;SDS011;74855;51.206;17.408;2024-02-23T10:02:03;5.38;;;1.52;;
84495;SDS011;74855;51.206;17.408;2024-02-23T10:07:03;6.85;;;2.33;;
84495;SDS011;74855;51.206;17.408;2024-02-23T10:11:58;4.78;;;1.50;;
84495;SDS011;74855;51.206;17.408;2024-02-23T10:16:54;5.72;;;2.22;;
84495;SDS011;74855;51.206;17.408;2024-02-23T10:21:51;4.82;;;1.42;;
84495;SDS011;74855;51.206;17.408;2024-02-23T10:26:48;5.35;;;1.85;;
84495;SDS011;74855;51.206;17.408;2024-02-23T10:31:43;5.90;;;1.95;;
84495;SDS011;74855;51.206;17.408;2024-02-23T10:36:42;4.75;;;1.60;;
84495;SDS011;74855;51.206;17.408;2024-02-23T10:41:40;3.60;;;1.33;;
84495;SDS011;74855;51.206;17.408;2024-02-23T10:46:41;4.25;;;1.35;;
84495;SDS011;74855;51.206;17.408;2024-02-23T10:51:37;4.13;;;1.25;;
84495;SDS011;74855;51.206;17.408;2024-02-23T10:56:34;4.75;;;1.52;;
84495;SDS011;74855;51.206;17.408;2024-02-23T11:01:32;3.90;;;1.63;;
84495;SDS011;74855;51.206;17.408;2024-02-23T11:06:29;4.50;;;1.85;;
84495;SDS011;74855;51.206;17.408;2024-02-23T11:11:28;8.25;;;3.45;;
84495;SDS011;74855;51.206;17.408;2024-02-23T11:16:27;8.93;;;3.13;;
84495;SDS011;74855;51.206;17.408;2024-02-23T11:21:24;6.43;;;1.95;;
84495;SDS011;74855;51.206;17.408;2024-02-23T11:26:29;5.13;;;1.98;;
84495;SDS011;74855;51.206;17.408;2024-02-23T11:31:29;3.95;;;1.30;;
84495;SDS011;74855;51.206;17.408;2024-02-23T11:36:29;5.72;;;1.85;;
84495;SDS011;74855;51.206;17.408;2024-02-23T11:41:27;5.32;;;1.70;;
84495;SDS011;74855;51.206;17.408;2024-02-23T11:46:24;5.65;;;2.45;;
84495;SDS011;74855;51.206;17.408;2024-02-23T11:51:21;12.90;;;3.83;;
84495;SDS011;74855;51.206;17.408;2024-02-23T11:56:19;6.45;;;2.38;;
84495;SDS011;74855;51.206;17.408;2024-02-23T12:01:15;4.55;;;1.52;;
84495;SDS011;74855;51.206;17.408;2024-02-23T12:06:10;4.75;;;1.30;;
84495;SDS011;74855;51.206;17.408;2024-02-23T12:11:08;7.20;;;3.03;;
84495;SDS011;74855;51.206;17.408;2024-02-23T12:16:06;4.95;;;1.58;;
84495;SDS011;74855;51.206;17.408;2024-02-23T12:21:04;3.97;;;1.15;;
84495;SDS011;74855;51.206;17.408;2024-02-23T12:26:00;8.35;;;3.22;;
84495;SDS011;74855;51.206;17.408;2024-02-23T12:30:59;36.17;;;16.88;;
84495;SDS011;74855;51.206;17.408;2024-02-23T12:35:57;7.35;;;2.78;;
84495;SDS011;74855;51.206;17.408;2024-02-23T12:40:53;22.65;;;10.57;;
84495;SDS011;74855;51.206;17.408;2024-02-23T12:45:50;7.55;;;3.33;;
84495;SDS011;74855;51.206;17.408;2024-02-23T12:50:50;6.72;;;2.53;;
84495;SDS011;74855;51.206;17.408;2024-02-23T12:55:49;6.55;;;2.15;;
84495;SDS011;74855;51.206;17.408;2024-02-23T13:00:44;7.07;;;2.42;;
84495;SDS011;74855;51.206;17.408;2024-02-23T13:05:40;6.80;;;2.47;;
84495;SDS011;74855;51.206;17.408;2024-02-23T13:10:36;13.50;;;5.43;;
84495;SDS011;74855;51.206;17.408;2024-02-23T13:15:33;9.93;;;2.83;;
84495;SDS011;74855;51.206;17.408;2024-02-23T13:20:29;8.50;;;2.42;;
84495;SDS011;74855;51.206;17.408;2024-02-23T13:25:25;7.30;;;2.05;;
84495;SDS011;74855;51.206;17.408;2024-02-23T13:30:20;4.20;;;1.60;;
84495;SDS011;74855;51.206;17.408;2024-02-23T13:35:17;6.15;;;2.10;;
84495;SDS011;74855;51.206;17.408;2024-02-23T13:40:13;8.27;;;2.15;;
84495;SDS011;74855;51.206;17.408;2024-02-23T13:45:09;6.03;;;1.83;;
84495;SDS011;74855;51.206;17.408;2024-02-23T13:50:06;4.90;;;1.40;;
84495;SDS011;74855;51.206;17.408;2024-02-23T13:55:04;4.55;;;1.38;;
84495;SDS011;74855;51.206;17.408;2024-02-23T14:00:00;4.60;;;1.50;;
84495;SDS011;74855;51.206;17.408;2024-02-23T14:04:59;4.45;;;1.83;;
84495;SDS011;74855;51.206;17.408;2024-02-23T14:09:56;5.60;;;1.73;;
84495;SDS011;74855;51.206;17.408;2024-02-23T14:14:53;5.47;;;2.13;;
84495;SDS011;74855;51.206;17.408;2024-02-23T14:19:49;4.75;;;1.58;;
84495;SDS011;74855;51.206;17.408;2024-02-23T14:24:45;4.00;;;1.60;;
84495;SDS011;74855;51.206;17.408;2024-02-23T14:29:40;5.75;;;2.65;;
84495;SDS011;74855;51.206;17.408;2024-02-23T14:34:38;5.85;;;1.80;;
84495;SDS011;74855;51.206;17.408;2024-02-23T14:39:33;13.93;;;8.50;;
84495;SDS011;74855;51.206;17.408;2024-02-23T14:44:29;7.10;;;2.15;;
84495;SDS011;74855;51.206;17.408;2024-02-23T14:49:25;5.80;;;1.67;;
84495;SDS011;74855;51.206;17.408;2024-02-23T14:54:22;3.80;;;1.20;;
84495;SDS011;74855;51.206;17.408;2024-02-23T14:59:18;4.97;;;1.58;;
84495;SDS011;74855;51.206;17.408;2024-02-23T15:04:14;7.18;;;4.10;;
84495;SDS011;74855;51.206;17.408;2024-02-23T15:09:09;11.88;;;5.10;;
84495;SDS011;74855;51.206;17.408;2024-02-23T15:14:06;13.40;;;4.70;;
84495;SDS011;74855;51.206;17.408;2024-02-23T15:19:02;11.80;;;5.13;;
84495;SDS011;74855;51.206;17.408;2024-02-23T15:23:58;5.47;;;2.30;;
84495;SDS011;74855;51.206;17.408;2024-02-23T15:28:54;9.05;;;4.03;;
84495;SDS011;74855;51.206;17.408;2024-02-23T15:33:51;14.82;;;6.50;;
84495;SDS011;74855;51.206;17.408;2024-02-23T15:38:47;18.08;;;9.10;;
84495;SDS011;74855;51.206;17.408;2024-02-23T15:43:42;17.80;;;9.90;;
84495;SDS011;74855;51.206;17.408;2024-02-23T15:48:39;8.10;;;3.92;;
84495;SDS011;74855;51.206;17.408;2024-02-23T15:53:36;6.50;;;2.75;;
84495;SDS011;74855;51.206;17.408;2024-02-23T15:58:32;5.80;;;2.90;;
84495;SDS011;74855;51.206;17.408;2024-02-23T16:03:28;7.30;;;3.10;;
84495;SDS011;74855;51.206;17.408;2024-02-23T16:08:39;6.97;;;2.33;;
84495;SDS011;74855;51.206;17.408;2024-02-23T16:13:36;6.60;;;2.97;;
84495;SDS011;74855;51.206;17.408;2024-02-23T16:18:32;9.18;;;3.90;;
84495;SDS011;74855;51.206;17.408;2024-02-23T16:23:28;7.22;;;3.28;;
84495;SDS011;74855;51.206;17.408;2024-02-23T16:28:25;6.88;;;3.38;;
84495;SDS011;74855;51.206;17.408;2024-02-23T16:33:21;7.53;;;3.08;;
84495;SDS011;74855;51.206;17.408;2024-02-23T16:38:17;7.82;;;3.05;;
84495;SDS011;74855;51.206;17.408;2024-02-23T16:43:12;8.85;;;3.97;;
84495;SDS011;74855;51.206;17.408;2024-02-23T16:48:10;8.73;;;3.67;;
84495;SDS011;74855;51.206;17.408;2024-02-23T16:53:05;8.45;;;4.00;;
84495;SDS011;74855;51.206;17.408;2024-02-23T16:58:01;7.60;;;3.63;;
84495;SDS011;74855;51.206;17.408;2024-02-23T17:02:57;10.95;;;4.32;;
84495;SDS011;74855;51.206;17.408;2024-02-23T17:07:55;16.13;;;6.82;;
84495;SDS011;74855;51.206;17.408;2024-02-23T17:12:50;21.25;;;8.95;;
84495;SDS011;74855;51.206;17.408;2024-02-23T17:17:46;9.57;;;4.90;;
84495;SDS011;74855;51.206;17.408;2024-02-23T17:22:42;8.93;;;4.45;;
84495;SDS011;74855;51.206;17.408;2024-02-23T17:27:40;10.63;;;4.75;;
84495;SDS011;74855;51.206;17.408;2024-02-23T17:32:37;10.00;;;4.80;;
84495;SDS011;74855;51.206;17.408;2024-02-23T17:37:33;8.95;;;3.50;;
84495;SDS011;74855;51.206;17.408;2024-02-23T17:42:29;7.82;;;3.10;;
84495;SDS011;74855;51.206;17.408;2024-02-23T17:47:27;8.77;;;3.50;;
84495;SDS011;74855;51.206;17.408;2024-02-23T17:52:22;10.63;;;4.45;;
84495;SDS011;74855;51.206;17.408;2024-02-23T17:57:18;11.95;;;4.82;;
84495;SDS011;74855;51.206;17.408;2024-02-23T18:02:14;7.65;;;3.50;;
84495;SDS011;74855;51.206;17.408;2024-02-23T18:07:11;8.82;;;3.28;;
84495;SDS011;74855;51.206;17.408;2024-02-23T18:17:06;9.07;;;3.85;;
84495;SDS011;74855;51.206;17.408;2024-02-23T18:22:02;13.27;;;3.92;;
84495;SDS011;74855;51.206;17.408;2024-02-23T18:26:59;9.45;;;4.75;;
84495;SDS011;74855;51.206;17.408;2024-02-23T18:31:58;11.90;;;5.43;;
84495;SDS011;74855;51.206;17.408;2024-02-23T18:36:54;10.68;;;5.28;;
84495;SDS011;74855;51.206;17.408;2024-02-23T18:41:49;13.60;;;6.40;;
84495;SDS011;74855;51.206;17.408;2024-02-23T18:46:47;11.85;;;5.82;;
84495;SDS011;74855;51.206;17.408;2024-02-23T18:51:42;19.42;;;7.50;;
84495;SDS011;74855;51.206;17.408;2024-02-23T18:56:38;24.35;;;10.95;;
84495;SDS011;74855;51.206;17.408;2024-02-23T19:01:34;26.48;;;12.63;;
84495;SDS011;74855;51.206;17.408;2024-02-23T19:06:31;25.02;;;11.35;;
84495;SDS011;74855;51.206;17.408;2024-02-23T19:11:30;19.58;;;8.95;;
84495;SDS011;74855;51.206;17.408;2024-02-23T19:16:26;13.73;;;7.68;;
84495;SDS011;74855;51.206;17.408;2024-02-23T19:21:22;13.13;;;7.05;;
84495;SDS011;74855;51.206;17.408;2024-02-23T19:26:19;12.82;;;6.15;;
84495;SDS011;74855;51.206;17.408;2024-02-23T19:31:17;11.38;;;5.68;;
84495;SDS011;74855;51.206;17.408;2024-02-23T19:36:13;9.93;;;5.18;;
84495;SDS011;74855;51.206;17.408;2024-02-23T19:41:08;10.55;;;5.55;;
84495;SDS011;74855;51.206;17.408;2024-02-23T19:46:06;10.63;;;5.60;;
84495;SDS011;74855;51.206;17.408;2024-02-23T19:51:02;14.00;;;7.07;;
84495;SDS011;74855;51.206;17.408;2024-02-23T19:55:57;11.93;;;6.78;;
84495;SDS011;74855;51.206;17.408;2024-02-23T20:00:53;11.40;;;6.45;;
84495;SDS011;74855;51.206;17.408;2024-02-23T20:05:51;11.93;;;6.18;;
84495;SDS011;74855;51.206;17.408;2024-02-23T20:10:47;11.18;;;5.95;;
84495;SDS011;74855;51.206;17.408;2024-02-23T20:15:42;11.15;;;5.82;;
84495;SDS011;74855;51.206;17.408;2024-02-23T20:20:38;12.18;;;4.80;;
84495;SDS011;74855;51.206;17.408;2024-02-23T20:25:38;10.15;;;5.22;;
84495;SDS011;74855;51.206;17.408;2024-02-23T20:30:36;9.90;;;4.15;;
84495;SDS011;74855;51.206;17.408;2024-02-23T20:35:32;7.32;;;4.18;;
84495;SDS011;74855;51.206;17.408;2024-02-23T20:40:29;11.05;;;6.05;;
84495;SDS011;74855;51.206;17.408;2024-02-23T20:45:27;10.02;;;5.28;;
84495;SDS011;74855;51.206;17.408;2024-02-23T20:50:23;9.63;;;5.55;;
84495;SDS011;74855;51.206;17.408;2024-02-23T20:55:18;13.90;;;7.13;;
84495;SDS011;74855;51.206;17.408;2024-02-23T21:00:14;16.33;;;8.20;;
84495;SDS011;74855;51.206;17.408;2024-02-23T21:05:12;14.50;;;7.75;;
84495;SDS011;74855;51.206;17.408;2024-02-23T21:10:08;13.13;;;6.03;;
84495;SDS011;74855;51.206;17.408;2024-02-23T21:15:05;13.15;;;6.53;;
84495;SDS011;74855;51.206;17.408;2024-02-23T21:20:01;10.68;;;4.90;;
84495;SDS011;74855;51.206;17.408;2024-02-23T21:24:58;10.23;;;5.38;;
84495;SDS011;74855;51.206;17.408;2024-02-23T21:29:54;9.95;;;5.25;;
84495;SDS011;74855;51.206;17.408;2024-02-23T21:34:50;12.05;;;5.18;;
84495;SDS011;74855;51.206;17.408;2024-02-23T21:39:46;10.82;;;5.20;;
84495;SDS011;74855;51.206;17.408;2024-02-23T21:44:43;12.15;;;5.95;;
84495;SDS011;74855;51.206;17.408;2024-02-23T21:49:40;13.57;;;7.30;;
84495;SDS011;74855;51.206;17.408;2024-02-23T21:54:38;16.25;;;8.27;;
84495;SDS011;74855;51.206;17.408;2024-02-23T21:59:33;16.55;;;8.75;;
84495;SDS011;74855;51.206;17.408;2024-02-23T22:04:31;14.80;;;6.63;;
84495;SDS011;74855;51.206;17.408;2024-02-23T22:09:26;18.05;;;10.70;;
84495;SDS011;74855;51.206;17.408;2024-02-23T22:14:22;16.80;;;9.70;;
84495;SDS011;74855;51.206;17.408;2024-02-23T22:19:18;19.27;;;11.50;;
84495;SDS011;74855;51.206;17.408;2024-02-23T22:24:15;21.85;;;12.90;;
84495;SDS011;74855;51.206;17.408;2024-02-23T22:29:11;20.70;;;12.60;;
84495;SDS011;74855;51.206;17.408;2024-02-23T22:34:07;22.67;;;12.15;;
84495;SDS011;74855;51.206;17.408;2024-02-23T22:39:02;20.77;;;11.70;;
84495;SDS011;74855;51.206;17.408;2024-02-23T22:44:00;23.05;;;13.10;;
84495;SDS011;74855;51.206;17.408;2024-02-23T22:48:56;20.70;;;12.15;;
84495;SDS011;74855;51.206;17.408;2024-02-23T22:53:53;15.10;;;9.98;;
84495;SDS011;74855;51.206;17.408;2024-02-23T22:58:49;20.15;;;11.77;;
84495;SDS011;74855;51.206;17.408;2024-02-23T23:03:52;26.52;;;13.52;;
84495;SDS011;74855;51.206;17.408;2024-02-23T23:08:48;22.20;;;13.70;;
84495;SDS011;74855;51.206;17.408;2024-02-23T23:13:44;22.45;;;13.60;;
84495;SDS011;74855;51.206;17.408;2024-02-23T23:18:39;25.98;;;14.45;;
84495;SDS011;74855;51.206;17.408;2024-02-23T23:23:36;22.92;;;13.27;;
84495;SDS011;74855;51.206;17.408;2024-02-23T23:28:32;29.23;;;15.98;;
84495;SDS011;74855;51.206;17.408;2024-02-23T23:33:28;25.65;;;15.27;;
84495;SDS011;74855;51.206;17.408;2024-02-23T23:38:24;23.45;;;15.23;;
84495;SDS011;74855;51.206;17.408;2024-02-23T23:43:21;25.55;;;15.25;;
84495;SDS011;74855;51.206;17.408;2024-02-23T23:48:17;25.23;;;14.60;;
84495;SDS011;74855;51.206;17.408;2024-02-23T23:53:12;24.88;;;13.05;;
84495;SDS011;74855;51.206;17.408;2024-02-23T23:58:08;26.45;;;14.82;;
